createdAt,value
2023-04-26T00:01:32.096Z,9.69
2023-04-26T00:03:59.015Z,9.64
2023-04-26T00:06:27.340Z,9.59
2023-04-26T00:08:55.004Z,9.49
2023-04-26T00:11:23.066Z,9.55
2023-04-26T00:13:50.033Z,9.47
2023-04-26T00:16:18.469Z,9.43
2023-04-26T00:18:46.436Z,9.45
2023-04-26T00:21:13.420Z,9.51
2023-04-26T00:23:40.127Z,9.45
2023-04-26T00:26:06.817Z,9.52
2023-04-26T00:28:34.527Z,9.39
2023-04-26T00:31:01.722Z,9.43
2023-04-26T00:33:28.551Z,9.33
2023-04-26T00:35:56.410Z,9.34
2023-04-26T00:38:23.255Z,9.34
2023-04-26T00:40:51.470Z,9.35
2023-04-26T00:43:18.592Z,9.35
2023-04-26T00:45:46.084Z,9.34
2023-04-26T00:48:13.214Z,9.29
2023-04-26T00:50:40.149Z,9.23
2023-04-26T00:53:08.922Z,9.26
2023-04-26T00:55:36.200Z,9.24
2023-04-26T00:58:03.082Z,9.14
2023-04-26T01:00:29.826Z,9.35
2023-04-26T01:02:57.986Z,9.37
2023-04-26T01:05:24.963Z,9.19
2023-04-26T01:07:52.678Z,9.26
2023-04-26T01:10:19.724Z,9.33
2023-04-26T01:12:46.981Z,9.27
2023-04-26T01:15:18.239Z,9.22
2023-04-26T01:17:47.571Z,9.14
2023-04-26T01:20:14.773Z,9.17
2023-04-26T01:22:41.842Z,9.13
2023-04-26T01:25:12.405Z,9.08
2023-04-26T01:27:39.866Z,8.97
2023-04-26T01:30:07.262Z,8.93
2023-04-26T01:32:35.049Z,8.98
2023-04-26T01:35:02.333Z,9.03
2023-04-26T01:37:29.103Z,9.08
2023-04-26T01:39:59.245Z,9.01
2023-04-26T01:42:26.482Z,9.00
2023-04-26T01:44:53.281Z,9.03
2023-04-26T01:47:20.129Z,8.97
2023-04-26T01:49:46.875Z,9.01
2023-04-26T01:52:13.657Z,8.98
2023-04-26T01:54:41.681Z,8.96
2023-04-26T01:57:08.727Z,8.92
2023-04-26T01:59:35.557Z,8.93
2023-04-26T02:02:02.443Z,8.87
2023-04-26T02:04:29.304Z,8.93
2023-04-26T02:06:57.276Z,9.01
2023-04-26T02:09:24.158Z,8.85
2023-04-26T02:11:50.908Z,8.91
2023-04-26T02:14:17.687Z,8.91
2023-04-26T02:16:44.999Z,9.02
2023-04-26T02:19:13.529Z,8.96
2023-04-26T02:21:58.014Z,8.85
2023-04-26T02:24:25.922Z,8.86
2023-04-26T02:26:54.538Z,8.77
2023-04-26T02:29:32.685Z,8.75
2023-04-26T02:32:07.820Z,8.80
2023-04-26T02:34:36.405Z,8.71
2023-04-26T02:37:03.225Z,8.71
2023-04-26T02:39:30.098Z,8.73
2023-04-26T02:41:57.733Z,8.70
2023-04-26T02:44:24.572Z,8.78
2023-04-26T02:46:51.689Z,8.81
2023-04-26T02:49:18.632Z,8.74
2023-04-26T02:51:45.705Z,8.74
2023-04-26T02:54:12.466Z,8.75
2023-04-26T02:56:39.729Z,8.70
2023-04-26T02:59:07.293Z,8.66
2023-04-26T03:01:34.333Z,8.53
2023-04-26T03:04:01.398Z,8.58
2023-04-26T03:06:29.873Z,8.58
2023-04-26T03:08:56.553Z,8.66
2023-04-26T03:11:23.547Z,8.71
2023-04-26T03:13:50.434Z,8.68
2023-04-26T03:16:20.682Z,8.55
2023-04-26T03:18:47.459Z,8.59
2023-04-26T03:21:14.519Z,8.60
2023-04-26T03:23:41.686Z,8.50
2023-04-26T03:26:09.345Z,8.52
2023-04-26T03:28:36.358Z,8.48
2023-04-26T03:31:03.390Z,8.57
2023-04-26T03:33:32.211Z,8.50
2023-04-26T03:35:59.113Z,8.60
2023-04-26T03:38:26.170Z,8.47
2023-04-26T03:40:53.025Z,8.56
2023-04-26T03:43:19.881Z,8.49
2023-04-26T03:45:50.427Z,8.53
2023-04-26T03:48:17.409Z,8.40
2023-04-26T03:50:46.060Z,8.39
2023-04-26T03:53:13.301Z,8.39
2023-04-26T03:55:40.286Z,8.45
2023-04-26T03:58:08.185Z,8.41
2023-04-26T04:00:38.116Z,8.50
2023-04-26T04:03:06.982Z,8.53
2023-04-26T04:05:34.226Z,8.51
2023-04-26T04:08:01.869Z,8.58
2023-04-26T04:10:29.180Z,8.59
2023-04-26T04:12:56.163Z,8.57
2023-04-26T04:15:23.493Z,8.54
2023-04-26T04:17:51.188Z,8.67
2023-04-26T04:20:18.026Z,8.54
2023-04-26T04:22:45.040Z,8.69
2023-04-26T04:25:11.913Z,8.66
2023-04-26T04:27:42.449Z,8.60
2023-04-26T04:30:10.102Z,8.59
2023-04-26T04:32:37.080Z,8.59
2023-04-26T04:35:05.315Z,8.69
2023-04-26T04:37:35.008Z,8.72
2023-04-26T04:40:02.417Z,8.63
2023-04-26T04:42:32.468Z,8.59
2023-04-26T04:45:00.389Z,8.61
2023-04-26T04:47:28.826Z,8.70
2023-04-26T04:49:56.492Z,8.60
2023-04-26T04:52:23.218Z,8.61
2023-04-26T04:54:49.979Z,8.70
2023-04-26T04:57:16.976Z,8.70
2023-04-26T04:59:45.383Z,8.58
2023-04-26T05:02:12.357Z,8.69
2023-04-26T05:04:39.541Z,8.80
2023-04-26T05:07:06.837Z,8.82
2023-04-26T05:09:35.251Z,8.85
2023-04-26T05:12:03.426Z,8.71
2023-04-26T05:14:31.489Z,8.87
2023-04-26T05:16:58.414Z,8.79
2023-04-26T05:19:25.998Z,8.72
2023-04-26T05:21:53.261Z,8.86
2023-04-26T05:24:20.050Z,8.91
2023-04-26T05:26:47.342Z,8.92
2023-04-26T05:29:32.649Z,9.01
2023-04-26T05:32:05.975Z,8.93
2023-04-26T05:34:42.103Z,8.91
2023-04-26T05:37:12.711Z,8.98
2023-04-26T05:39:39.503Z,9.00
2023-04-26T05:42:06.966Z,8.92
2023-04-26T05:44:33.858Z,9.12
2023-04-26T05:47:01.831Z,9.03
2023-04-26T05:49:28.626Z,9.20
2023-04-26T05:51:55.361Z,9.14
2023-04-26T05:54:22.214Z,9.19
2023-04-26T05:56:48.972Z,9.26
2023-04-26T05:59:16.633Z,9.26
2023-04-26T06:01:43.835Z,9.34
2023-04-26T06:04:15.564Z,9.44
2023-04-26T06:06:56.168Z,9.32
2023-04-26T06:09:23.800Z,9.31
2023-04-26T06:11:50.610Z,9.38
2023-04-26T06:14:29.381Z,9.45
2023-04-26T06:16:59.432Z,9.48
2023-04-26T06:19:27.486Z,9.66
2023-04-26T06:21:55.562Z,9.69
2023-04-26T06:24:23.535Z,9.76
2023-04-26T06:26:50.408Z,9.69
2023-04-26T06:29:17.405Z,9.84
2023-04-26T06:31:44.306Z,9.91
2023-04-26T06:34:12.252Z,10.07
2023-04-26T06:36:39.223Z,10.06
2023-04-26T06:39:06.253Z,10.07
2023-04-26T06:41:33.614Z,10.06
2023-04-26T06:44:00.412Z,10.08
2023-04-26T06:46:30.966Z,10.09
2023-04-26T06:48:57.826Z,10.19
2023-04-26T06:51:25.288Z,10.11
2023-04-26T06:53:53.079Z,10.00
2023-04-26T06:56:20.038Z,10.16
2023-04-26T06:59:06.958Z,10.13
2023-04-26T07:01:35.539Z,10.19
2023-04-26T07:04:10.971Z,10.21
2023-04-26T07:06:39.240Z,10.23
2023-04-26T07:09:06.164Z,10.15
2023-04-26T07:11:32.885Z,10.09
2023-04-26T07:13:59.582Z,10.23
2023-04-26T07:16:27.136Z,10.33
2023-04-26T07:18:58.194Z,10.40
2023-04-26T07:21:26.823Z,10.39
2023-04-26T07:23:55.675Z,10.42
2023-04-26T07:26:23.668Z,10.55
2023-04-26T07:28:53.911Z,10.54
2023-04-26T07:31:21.295Z,10.51
2023-04-26T07:33:48.146Z,10.57
2023-04-26T07:36:15.201Z,10.82
2023-04-26T07:38:42.454Z,10.78
2023-04-26T07:41:09.184Z,10.81
2023-04-26T07:43:36.114Z,10.66
2023-04-26T07:46:03.020Z,10.67
2023-04-26T07:48:29.769Z,10.63
2023-04-26T07:50:56.738Z,10.76
2023-04-26T07:53:23.473Z,10.87
2023-04-26T07:55:51.471Z,10.88
2023-04-26T07:58:19.397Z,10.87
2023-04-26T08:00:46.237Z,10.89
2023-04-26T08:03:17.960Z,10.95
2023-04-26T08:05:45.620Z,10.84
2023-04-26T08:08:12.757Z,10.90
2023-04-26T08:10:42.826Z,11.03
2023-04-26T08:13:09.632Z,11.25
2023-04-26T08:15:36.843Z,11.21
2023-04-26T08:18:03.874Z,11.06
2023-04-26T08:20:32.545Z,11.23
2023-04-26T08:22:59.916Z,11.35
2023-04-26T08:25:26.739Z,11.25
2023-04-26T08:27:53.749Z,11.37
2023-04-26T08:30:23.858Z,11.17
2023-04-26T08:32:51.102Z,11.09
2023-04-26T08:35:17.987Z,11.20
2023-04-26T08:37:45.086Z,11.10
2023-04-26T08:40:12.233Z,11.10
2023-04-26T08:42:44.804Z,11.26
2023-04-26T08:45:11.781Z,11.38
2023-04-26T08:47:48.481Z,11.29
2023-04-26T08:50:16.919Z,11.26
2023-04-26T08:52:44.646Z,11.43
2023-04-26T08:55:13.095Z,11.56
2023-04-26T08:57:43.613Z,11.60
2023-04-26T09:00:14.604Z,11.68
2023-04-26T09:02:52.207Z,11.63
2023-04-26T09:05:24.820Z,11.85
2023-04-26T09:07:56.654Z,11.62
2023-04-26T09:10:24.091Z,11.78
2023-04-26T09:12:54.926Z,11.95
2023-04-26T09:15:23.161Z,11.91
2023-04-26T09:17:51.828Z,11.77
2023-04-26T09:20:19.274Z,11.79
2023-04-26T09:22:46.490Z,12.02
2023-04-26T09:25:14.147Z,11.91
2023-04-26T09:27:46.363Z,11.87
2023-04-26T09:30:17.604Z,11.72
2023-04-26T09:32:58.996Z,11.80
2023-04-26T09:35:29.204Z,11.87
2023-04-26T09:38:07.804Z,11.65
2023-04-26T09:40:41.828Z,11.54
2023-04-26T09:43:14.430Z,11.77
2023-04-26T09:45:50.461Z,11.79
2023-04-26T09:48:22.337Z,11.96
2023-04-26T09:50:54.848Z,11.90
2023-04-26T09:53:31.397Z,12.02
2023-04-26T09:56:10.731Z,12.42
2023-04-26T09:59:02.630Z,12.26
2023-04-26T10:01:30.679Z,12.16
2023-04-26T10:03:58.261Z,12.25
2023-04-26T10:06:25.747Z,12.23
2023-04-26T10:08:52.751Z,12.20
2023-04-26T10:11:21.717Z,12.22
2023-04-26T10:13:51.827Z,12.10
2023-04-26T10:16:20.988Z,12.29
2023-04-26T10:18:48.215Z,12.47
2023-04-26T10:21:17.256Z,12.64
2023-04-26T10:23:44.807Z,12.57
2023-04-26T10:26:53.157Z,12.34
2023-04-26T10:29:24.285Z,12.51
2023-04-26T10:32:06.636Z,12.44
2023-04-26T10:34:35.308Z,12.40
2023-04-26T10:37:14.191Z,12.65
2023-04-26T10:39:42.757Z,12.57
2023-04-26T10:42:26.827Z,12.37
2023-04-26T10:44:57.513Z,12.48
2023-04-26T10:47:37.297Z,12.70
2023-04-26T10:50:11.531Z,12.79
2023-04-26T10:52:59.327Z,13.03
2023-04-26T10:55:40.448Z,12.67
2023-04-26T10:58:28.360Z,13.08
2023-04-26T11:01:19.072Z,12.96
2023-04-26T11:03:58.984Z,13.16
2023-04-26T11:06:26.949Z,13.28
2023-04-26T11:08:54.639Z,13.49
2023-04-26T11:11:26.491Z,13.09
2023-04-26T11:13:53.917Z,13.06
2023-04-26T11:16:20.769Z,13.04
2023-04-26T11:18:48.517Z,12.94
2023-04-26T11:21:19.619Z,12.80
2023-04-26T11:23:56.038Z,12.97
2023-04-26T11:26:23.083Z,13.03
2023-04-26T11:28:49.828Z,13.01
2023-04-26T11:31:18.923Z,13.02
2023-04-26T11:33:46.425Z,13.19
2023-04-26T11:36:14.270Z,13.37
2023-04-26T11:38:41.278Z,13.54
2023-04-26T11:41:08.105Z,13.82
2023-04-26T11:43:39.200Z,14.06
2023-04-26T11:46:07.779Z,13.99
2023-04-26T11:48:37.703Z,14.10
2023-04-26T11:51:05.802Z,14.38
2023-04-26T11:53:41.195Z,14.31
2023-04-26T11:56:19.138Z,13.97
2023-04-26T11:58:53.426Z,13.78
2023-04-26T12:01:25.475Z,13.81
2023-04-26T12:03:54.630Z,13.65
2023-04-26T12:06:29.280Z,13.61
2023-04-26T12:08:58.510Z,13.42
2023-04-26T12:11:27.118Z,13.71
2023-04-26T12:13:53.888Z,13.65
2023-04-26T12:16:26.734Z,13.58
2023-04-26T12:18:55.443Z,13.88
2023-04-26T12:21:22.769Z,14.13
2023-04-26T12:23:49.705Z,14.02
2023-04-26T12:26:16.659Z,13.61
2023-04-26T12:28:44.049Z,13.32
2023-04-26T12:31:10.807Z,13.02
2023-04-26T12:33:37.619Z,13.17
2023-04-26T12:36:09.887Z,13.29
2023-04-26T12:38:37.277Z,13.19
2023-04-26T12:41:05.256Z,13.40
2023-04-26T12:43:32.073Z,13.44
2023-04-26T12:45:58.870Z,13.29
2023-04-26T12:48:25.724Z,13.27
2023-04-26T12:50:52.500Z,13.21
2023-04-26T12:53:19.334Z,13.14
2023-04-26T12:55:46.343Z,13.21
2023-04-26T12:58:13.304Z,13.39
2023-04-26T13:00:40.287Z,13.46
2023-04-26T13:03:07.776Z,13.53
2023-04-26T13:05:34.936Z,13.70
2023-04-26T13:08:02.303Z,13.73
2023-04-26T13:10:29.141Z,13.68
2023-04-26T13:12:57.891Z,13.64
2023-04-26T13:15:26.920Z,13.78
2023-04-26T13:17:54.264Z,13.56
2023-04-26T13:20:22.329Z,13.63
2023-04-26T13:22:51.340Z,13.67
2023-04-26T13:25:19.214Z,13.58
2023-04-26T13:27:46.443Z,13.58
2023-04-26T13:30:13.917Z,13.80
2023-04-26T13:32:40.924Z,13.83
2023-04-26T13:35:08.742Z,13.53
2023-04-26T13:37:35.777Z,13.66
2023-04-26T13:40:03.969Z,13.57
2023-04-26T13:42:30.940Z,13.71
2023-04-26T13:44:57.674Z,13.78
2023-04-26T13:47:24.453Z,13.94
2023-04-26T13:49:51.311Z,13.95
2023-04-26T13:52:18.369Z,13.95
2023-04-26T13:54:45.168Z,13.65
2023-04-26T13:57:11.902Z,13.54
2023-04-26T13:59:40.351Z,13.55
2023-04-26T14:02:07.527Z,13.55
2023-04-26T14:04:34.620Z,13.47
2023-04-26T14:07:01.509Z,13.58
2023-04-26T14:09:28.196Z,13.59
2023-04-26T14:12:07.227Z,13.43
2023-04-26T14:14:36.028Z,13.27
2023-04-26T14:17:02.842Z,13.03
2023-04-26T14:19:29.583Z,13.01
2023-04-26T14:21:56.296Z,13.01
2023-04-26T14:24:23.161Z,13.12
2023-04-26T14:26:50.005Z,13.03
2023-04-26T14:29:16.782Z,12.90
2023-04-26T14:31:43.563Z,12.82
2023-04-26T14:34:10.501Z,12.80
2023-04-26T14:36:37.324Z,12.89
2023-04-26T14:39:04.356Z,12.89
2023-04-26T14:41:31.122Z,13.00
2023-04-26T14:43:57.907Z,13.03
2023-04-26T14:46:24.667Z,13.01
2023-04-26T14:48:51.564Z,13.00
2023-04-26T14:51:18.326Z,13.04
2023-04-26T14:53:45.009Z,12.96
2023-04-26T14:56:12.207Z,12.90
2023-04-26T14:58:39.271Z,12.94
2023-04-26T15:01:06.296Z,13.08
2023-04-26T15:03:33.630Z,13.07
2023-04-26T15:06:00.583Z,13.03
2023-04-26T15:08:27.295Z,12.97
2023-04-26T15:10:54.131Z,12.81
2023-04-26T15:13:20.984Z,12.79
2023-04-26T15:15:47.936Z,12.85
2023-04-26T15:18:14.943Z,12.89
2023-04-26T15:20:41.733Z,12.75
2023-04-26T15:23:09.209Z,12.74
2023-04-26T15:25:37.252Z,12.75
2023-04-26T15:28:04.546Z,12.64
2023-04-26T15:30:31.387Z,12.65
2023-04-26T15:32:58.789Z,12.72
2023-04-26T15:35:25.837Z,12.79
2023-04-26T15:37:54.100Z,12.67
2023-04-26T15:40:24.785Z,12.59
2023-04-26T15:42:52.164Z,12.57
2023-04-26T15:45:20.006Z,12.62
2023-04-26T15:47:47.311Z,12.59
2023-04-26T15:50:14.367Z,12.52
2023-04-26T15:52:41.410Z,12.49
2023-04-26T15:55:08.383Z,12.64
2023-04-26T15:57:35.535Z,12.51
2023-04-26T16:00:02.391Z,12.49
2023-04-26T16:02:31.580Z,12.39
2023-04-26T16:04:58.537Z,12.39
2023-04-26T16:07:25.556Z,12.35
2023-04-26T16:09:52.611Z,12.24
2023-04-26T16:12:19.353Z,12.27
2023-04-26T16:14:46.084Z,12.16
2023-04-26T16:17:12.915Z,12.17
2023-04-26T16:19:39.796Z,12.21
2023-04-26T16:22:06.609Z,12.06
2023-04-26T16:24:33.315Z,12.10
2023-04-26T16:27:00.130Z,12.01
2023-04-26T16:29:27.176Z,11.93
2023-04-26T16:31:54.151Z,11.86
2023-04-26T16:34:21.028Z,11.89
2023-04-26T16:36:47.774Z,11.85
2023-04-26T16:39:16.152Z,11.84
2023-04-26T16:41:43.373Z,11.85
2023-04-26T16:44:10.309Z,11.75
2023-04-26T16:46:37.532Z,11.83
2023-04-26T16:49:09.455Z,11.83
2023-04-26T16:51:38.004Z,11.83
2023-04-26T16:54:05.028Z,11.86
2023-04-26T16:56:32.354Z,11.78
2023-04-26T16:58:59.562Z,11.78
2023-04-26T17:01:26.549Z,11.70
2023-04-26T17:03:54.179Z,11.74
2023-04-26T17:06:21.234Z,11.63
2023-04-26T17:08:48.111Z,11.65
2023-04-26T17:11:15.962Z,11.70
2023-04-26T17:13:43.010Z,11.62
2023-04-26T17:16:09.786Z,11.57
2023-04-26T17:18:37.232Z,11.55
2023-04-26T17:21:07.518Z,11.49
2023-04-26T17:23:34.663Z,11.41
2023-04-26T17:26:02.095Z,11.33
2023-04-26T17:28:29.234Z,11.25
2023-04-26T17:30:56.019Z,11.31
2023-04-26T17:33:23.507Z,11.23
2023-04-26T17:35:50.637Z,11.25
2023-04-26T17:38:17.458Z,11.29
2023-04-26T17:40:44.148Z,11.22
2023-04-26T17:43:11.603Z,11.19
2023-04-26T17:45:38.372Z,11.14
2023-04-26T17:48:05.701Z,11.07
2023-04-26T17:50:32.768Z,11.11
2023-04-26T17:52:59.492Z,11.09
2023-04-26T17:55:26.203Z,11.10
2023-04-26T17:57:52.887Z,11.09
2023-04-26T18:00:19.964Z,11.08
2023-04-26T18:02:47.494Z,10.90
2023-04-26T18:05:14.547Z,11.01
2023-04-26T18:07:41.330Z,10.98
2023-04-26T18:10:08.825Z,10.95
2023-04-26T18:12:36.282Z,10.94
2023-04-26T18:15:03.293Z,10.83
2023-04-26T18:17:30.253Z,10.86
2023-04-26T18:19:57.296Z,10.91
2023-04-26T18:22:23.990Z,10.92
2023-04-26T18:24:50.865Z,10.89
2023-04-26T18:27:17.613Z,10.90
2023-04-26T18:29:44.455Z,10.88
2023-04-26T18:32:11.273Z,10.88
2023-04-26T18:34:38.193Z,10.88
2023-04-26T18:37:05.234Z,10.83
2023-04-26T18:39:32.030Z,10.88
2023-04-26T18:41:58.750Z,10.85
2023-04-26T18:44:25.408Z,10.86
2023-04-26T18:46:55.763Z,10.86
2023-04-26T18:49:23.721Z,10.82
2023-04-26T18:51:50.427Z,10.77
2023-04-26T18:54:17.308Z,10.78
2023-04-26T18:56:44.935Z,10.77
2023-04-26T18:59:11.847Z,10.72
2023-04-26T19:01:38.787Z,10.72
2023-04-26T19:04:06.124Z,10.70
2023-04-26T19:06:33.164Z,10.69
2023-04-26T19:09:01.025Z,10.62
2023-04-26T19:11:27.713Z,10.60
2023-04-26T19:13:54.518Z,10.56
2023-04-26T19:16:21.606Z,10.46
2023-04-26T19:18:49.122Z,10.32
2023-04-26T19:21:16.358Z,10.19
2023-04-26T19:23:44.813Z,10.07
2023-04-26T19:26:12.874Z,9.79
2023-04-26T19:28:40.056Z,9.74
2023-04-26T19:31:06.902Z,9.55
2023-04-26T19:33:34.075Z,9.43
2023-04-26T19:36:01.231Z,9.17
2023-04-26T19:38:28.748Z,9.04
2023-04-26T19:40:55.418Z,8.98
2023-04-26T19:43:22.178Z,8.84
2023-04-26T19:45:48.973Z,8.75
2023-04-26T19:48:16.002Z,8.66
2023-04-26T19:50:44.865Z,8.57
2023-04-26T19:53:13.226Z,8.42
2023-04-26T19:55:41.490Z,8.38
2023-04-26T19:58:08.708Z,8.25
2023-04-26T20:00:39.148Z,8.15
2023-04-26T20:03:06.699Z,8.06
2023-04-26T20:05:34.198Z,8.01
2023-04-26T20:08:01.641Z,7.95
2023-04-26T20:10:33.737Z,7.86
2023-04-26T20:13:00.937Z,7.77
2023-04-26T20:15:28.226Z,7.71
2023-04-26T20:17:55.231Z,7.64
2023-04-26T20:20:22.132Z,7.60
2023-04-26T20:22:49.044Z,7.55
2023-04-26T20:25:15.977Z,7.48
2023-04-26T20:27:42.795Z,7.44
2023-04-26T20:30:10.109Z,7.39
2023-04-26T20:32:36.946Z,7.36
2023-04-26T20:35:04.697Z,7.32
2023-04-26T20:37:32.001Z,7.25
2023-04-26T20:39:58.962Z,7.23
2023-04-26T20:42:25.724Z,7.15
2023-04-26T20:44:52.500Z,7.06
2023-04-26T20:47:19.512Z,7.02
2023-04-26T20:49:46.471Z,7.00
2023-04-26T20:52:13.186Z,6.99
2023-04-26T20:54:39.889Z,6.99
2023-04-26T20:57:06.744Z,6.96
2023-04-26T20:59:33.412Z,7.00
2023-04-26T21:02:00.147Z,6.97
2023-04-26T21:04:27.220Z,6.96
2023-04-26T21:06:54.080Z,6.88
2023-04-26T21:09:21.611Z,6.83
2023-04-26T21:11:48.379Z,6.71
2023-04-26T21:14:15.148Z,6.71
2023-04-26T21:16:41.917Z,6.67
2023-04-26T21:19:08.954Z,6.63
2023-04-26T21:21:35.785Z,6.60
2023-04-26T21:24:03.969Z,6.58
2023-04-26T21:26:30.751Z,6.52
2023-04-26T21:28:57.718Z,6.48
2023-04-26T21:31:24.635Z,6.47
2023-04-26T21:33:51.485Z,6.45
2023-04-26T21:36:18.486Z,6.44
2023-04-26T21:38:45.394Z,6.41
2023-04-26T21:41:12.117Z,6.41
2023-04-26T21:43:38.806Z,6.39
2023-04-26T21:46:06.610Z,6.29
2023-04-26T21:48:33.769Z,6.23
2023-04-26T21:51:00.463Z,6.18
2023-04-26T21:53:27.226Z,6.10
2023-04-26T21:55:54.355Z,6.09
2023-04-26T21:58:21.928Z,6.08
2023-04-26T22:00:49.415Z,6.11
2023-04-26T22:03:17.198Z,6.02
2023-04-26T22:05:44.210Z,6.09
2023-04-26T22:08:10.980Z,6.07
2023-04-26T22:10:37.679Z,6.06
2023-04-26T22:13:05.356Z,6.07
2023-04-26T22:15:32.243Z,6.04
2023-04-26T22:17:59.342Z,5.99
2023-04-26T22:20:26.617Z,5.97
2023-04-26T22:22:53.915Z,5.93
2023-04-26T22:25:21.134Z,5.87
2023-04-26T22:27:48.504Z,5.86
2023-04-26T22:30:25.295Z,5.79
2023-04-26T22:32:54.844Z,5.83
2023-04-26T22:35:23.087Z,5.80
2023-04-26T22:37:50.192Z,5.67
2023-04-26T22:40:17.432Z,5.73
2023-04-26T22:42:44.357Z,5.63
2023-04-26T22:45:12.397Z,5.72
2023-04-26T22:47:40.208Z,5.72
2023-04-26T22:50:08.127Z,5.74
2023-04-26T22:52:35.801Z,5.80
2023-04-26T22:55:02.921Z,5.80
2023-04-26T22:57:31.209Z,5.80
2023-04-26T22:59:58.225Z,5.72
2023-04-26T23:02:25.180Z,5.76
2023-04-26T23:04:52.102Z,5.75
2023-04-26T23:07:18.923Z,5.68
2023-04-26T23:09:45.744Z,5.72
2023-04-26T23:12:18.508Z,5.68
2023-04-26T23:14:45.479Z,5.61
2023-04-26T23:17:12.279Z,5.56
2023-04-26T23:19:39.018Z,5.53
2023-04-26T23:22:05.682Z,5.49
2023-04-26T23:24:32.347Z,5.42
2023-04-26T23:26:59.046Z,5.37
2023-04-26T23:29:25.766Z,5.31
2023-04-26T23:31:52.798Z,5.29
2023-04-26T23:34:19.526Z,5.25
2023-04-26T23:36:46.254Z,5.20
2023-04-26T23:39:13.087Z,5.25
2023-04-26T23:41:39.922Z,5.27
2023-04-26T23:44:07.287Z,5.27
2023-04-26T23:46:34.333Z,5.27
2023-04-26T23:49:01.214Z,5.26
2023-04-26T23:51:28.026Z,5.30
2023-04-26T23:53:54.763Z,5.35
2023-04-26T23:56:21.473Z,5.34
2023-04-26T23:58:48.204Z,5.40
